Cambridge, MA (02138)

9:45 PM EST on December 22, 2014 (GMT -0500)
Porter Square | Change Station
CLOSE
Current Station
Personal Weather Station
Location: Cambridge, MA
Elevation: 47 ft
Nearby Weather Stations

Elev 47 ft 42.39 °N, 71.12 °W | Updated 44 seconds ago

Overcast
Overcast
40.8 °F
Feels Like 41 °F
N
0.0
Wind Variable Wind from North
Gusts 0.0 mph

Today
High -- | Low -- °F
--% Chance of Precip.
Yesterday
High -- | Low -- °F
Precip. -- in
7:10 AM 4:15 PM
New Moon, 1% visible
Pressure 30.32 in
Visibility 10.0 miles
Clouds Few 2300 ft
Mostly Cloudy 4600 ft
Windchill 41 °F
Dew Point 39 °F
Humidity 94%
Rainfall 0.04 in
Snow Depth Not available.
UV 0 out of 12
Pollen .10 out of 12
Air Quality Not available.
Flu Activity Not available.
METAR KBOS 230154Z 11006KT 10SM FEW023 BKN046 05/03 A3032 RMK AO2 SLP268 T00500028

More Conditions Fewer Conditions

Pressure 30.32 in
Visibility 10.0 miles
Clouds Few 2300 ft
Mostly Cloudy 4600 ft
Windchill 41 °F
Dew Point 39 °F
Humidity 94%
Rainfall 0.04 in
Snow Depth Not available.
UV 0 out of 12
Pollen .10 out of 12
Air Quality Not available.
Flu Activity Not available.
METAR KBOS 230154Z 11006KT 10SM FEW023 BKN046 05/03 A3032 RMK AO2 SLP268 T00500028

More Conditions Fewer Conditions

10-Day Weather Forecast

Almanac

Astronomy

Dec. 22, 2014 Rise Set
Actual Time
Civil Twilight
Nautical Twilight
Astronomical Twilight
Moon
Length of Visible Light
Length of Day
Tomorrow will be .
, % of the Moon is Illuminated

Today's Extremes

State Highs State Lows

Community

WunderPhotos

Upload Photos

1,779,762 photos uploaded!

WunderBlogs® & News

Nearby

Air Quality

  Air Quality AQ Index Pollutant
Not available.

Snow Depth

Station Depth Elevation

Earthquake Activity

City Distance Mag. Time & Date
Minimum magnitude displayed is 2.5.

Coastal Water Temperatures

Place Temperature

Nearby Weather Stations